Time;durP1;ratioP1;P1;durP2;ratioP2;P2;SDS_P1;SDS_P2;PMS_P1;PMS_P2;Temp;Humidity;BMP_temperature;BMP_pressure;BME280_temperature;BME280_humidity;BME280_pressure;Samples;Min_cycle;Max_cycle;Signal;HPM_P1;HPM_P2
2021/06/16 00:01:20;;;;;;;9.38;7.10;;;;;;;-139.48;100.00;61774.03;5032164;28;20064;-67
2021/06/16 00:04:05;;;;;;;10.82;7.05;;;;;;;-139.48;100.00;61774.03;5033146;28;20099;-67
2021/06/16 00:06:50;;;;;;;8.82;7.05;;;;;;;-139.48;100.00;61774.03;5032085;28;20052;-67
2021/06/16 00:09:35;;;;;;;10.00;7.30;;;;;;;-139.48;100.00;61774.03;5033043;28;20045;-67
2021/06/16 00:12:18;;;;;;;9.73;7.40;;;;;;;-139.48;100.00;61774.03;5031894;28;20092;-67
2021/06/16 00:15:11;;;;;;;9.05;7.47;;;;;;;-139.48;100.00;61774.03;5032051;28;20048;-67
2021/06/16 00:17:55;;;;;;;13.00;7.35;;;;;;;-139.48;100.00;61774.03;5018142;28;20501;-67
2021/06/16 00:20:40;;;;;;;11.15;7.25;;;;;;;-139.48;100.00;61774.03;5034683;28;20045;-67
2021/06/16 00:23:24;;;;;;;9.10;7.50;;;;;;;-139.48;100.00;61774.03;5035756;28;20102;-67
2021/06/16 00:26:08;;;;;;;11.05;7.75;;;;;;;-139.48;100.00;61774.03;5036694;28;20111;-67
2021/06/16 00:28:52;;;;;;;15.48;7.75;;;;;;;-139.48;100.00;61774.03;5035281;28;20056;-67
2021/06/16 00:31:36;;;;;;;13.45;8.35;;;;;;;-139.48;100.00;61774.03;5035257;28;20045;-67
2021/06/16 00:34:20;;;;;;;11.60;7.63;;;;;;;-139.48;100.00;61774.03;5035553;28;20175;-67
2021/06/16 00:37:04;;;;;;;10.43;7.47;;;;;;;-139.48;100.00;61774.03;5035258;28;20346;-68
2021/06/16 00:39:49;;;;;;;12.15;8.48;;;;;;;-139.48;100.00;61774.03;5035059;28;20053;-67
2021/06/16 00:42:33;;;;;;;12.75;7.47;;;;;;;-139.48;100.00;61774.03;5021475;28;20072;-67
2021/06/16 00:45:17;;;;;;;11.27;8.07;;;;;;;-139.48;100.00;61774.03;5035407;28;20129;-67
2021/06/16 00:48:01;;;;;;;12.13;8.30;;;;;;;-139.48;100.00;61774.03;5036180;28;20087;-67
2021/06/16 00:50:46;;;;;;;11.82;8.13;;;;;;;-139.48;100.00;61774.03;5035293;28;20477;-67
2021/06/16 00:53:30;;;;;;;12.00;7.60;;;;;;;-139.48;100.00;61774.03;5035274;28;20179;-67
2021/06/16 00:56:13;;;;;;;11.65;7.63;;;;;;;-139.48;100.00;61774.03;5034858;28;20171;-67
2021/06/16 00:58:57;;;;;;;14.00;7.53;;;;;;;-139.48;100.00;61774.03;5035042;28;20106;-67
2021/06/16 01:01:44;;;;;;;9.38;8.30;;;;;;;-139.48;100.00;61774.03;5034811;28;20084;-67
2021/06/16 01:04:29;;;;;;;9.63;7.40;;;;;;;-139.48;100.00;61774.03;5020661;28;20100;-67
2021/06/16 01:07:14;;;;;;;9.30;8.27;;;;;;;-139.48;100.00;61774.03;5034747;28;20121;-66
2021/06/16 01:10:01;;;;;;;10.40;8.45;;;;;;;-139.48;100.00;61774.03;5020666;28;20107;-67
2021/06/16 01:13:16;;;;;;;16.20;8.02;;;;;;;-139.48;100.00;61774.03;5035084;28;20160;-67
2021/06/16 01:16:50;;;;;;;13.07;8.50;;;;;;;-139.48;100.00;61774.03;5035532;28;20453;-67
2021/06/16 01:19:59;;;;;;;9.55;8.52;;;;;;;-139.48;100.00;61774.03;5020367;28;20053;-67
2021/06/16 01:22:49;;;;;;;13.93;9.38;;;;;;;-139.48;100.00;61774.03;5035785;28;20079;-67
2021/06/16 01:25:49;;;;;;;13.38;9.45;;;;;;;-139.48;100.00;61774.03;5035549;28;20410;-67
2021/06/16 01:28:37;;;;;;;11.85;9.30;;;;;;;-139.48;100.00;61774.03;5034410;28;20056;-67
2021/06/16 01:31:22;;;;;;;13.65;9.25;;;;;;;-139.48;100.00;61774.03;5019792;28;20103;-67
2021/06/16 01:34:07;;;;;;;14.70;9.60;;;;;;;-139.48;100.00;61774.03;5034230;28;20044;-67
2021/06/16 01:36:55;;;;;;;14.60;9.35;;;;;;;-139.48;100.00;61774.03;5034340;28;20048;-67
2021/06/16 01:39:40;;;;;;;11.23;8.82;;;;;;;-139.48;100.00;61774.03;5019840;28;20099;-66
2021/06/16 01:42:27;;;;;;;11.68;9.07;;;;;;;-139.48;100.00;61774.03;5034285;28;20125;-67
2021/06/16 01:45:11;;;;;;;14.15;8.73;;;;;;;-139.48;100.00;61774.03;5033940;28;20064;-67
2021/06/16 01:47:57;;;;;;;13.07;9.07;;;;;;;-139.48;100.00;61774.03;5034194;28;20126;-67
2021/06/16 01:50:43;;;;;;;12.23;9.52;;;;;;;-139.48;100.00;61774.03;5034015;28;20505;-67
2021/06/16 01:53:27;;;;;;;14.05;9.15;;;;;;;-139.48;100.00;61774.03;5034066;28;20509;-67
2021/06/16 01:56:11;;;;;;;10.73;9.00;;;;;;;-139.48;100.00;61774.03;5033790;28;20044;-67
2021/06/16 01:58:55;;;;;;;17.33;9.90;;;;;;;-139.48;100.00;61774.03;5020055;28;20517;-67
2021/06/16 02:01:40;;;;;;;15.68;9.98;;;;;;;-139.48;100.00;61774.03;5034555;28;20465;-67
2021/06/16 02:04:24;;;;;;;12.30;9.38;;;;;;;-139.48;100.00;61774.03;5033780;28;20467;-67
2021/06/16 02:07:25;;;;;;;13.43;9.27;;;;;;;-139.48;100.00;61774.03;5033507;28;20099;-67
2021/06/16 02:10:11;;;;;;;16.95;9.90;;;;;;;-139.48;100.00;61774.03;5033515;28;20064;-67
2021/06/16 02:12:57;;;;;;;14.52;10.15;;;;;;;-139.48;100.00;61774.03;5033720;28;20151;-67
2021/06/16 02:15:47;;;;;;;14.18;10.32;;;;;;;-139.48;100.00;61774.03;5019735;28;20056;-67
2021/06/16 02:18:47;;;;;;;12.88;9.38;;;;;;;-139.48;100.00;61774.03;5019275;28;20075;-67
2021/06/16 02:21:31;;;;;;;14.50;10.43;;;;;;;-139.48;100.00;61774.03;5033523;28;20044;-66
2021/06/16 02:24:18;;;;;;;11.25;9.48;;;;;;;-139.48;100.00;61774.03;5019482;28;20045;-67
2021/06/16 02:27:02;;;;;;;16.45;10.32;;;;;;;-139.48;100.00;61774.03;5019142;28;20056;-67
2021/06/16 02:29:47;;;;;;;15.45;10.60;;;;;;;-139.48;100.00;61774.03;5034052;28;20072;-67
2021/06/16 02:32:31;;;;;;;;;;;;;;;-139.48;100.00;61774.03;5019828;28;20045;-67
2021/06/16 02:35:16;;;;;;;16.50;11.35;;;;;;;-139.48;100.00;61774.03;5005520;28;19920;-68
2021/06/16 02:38:16;;;;;;;15.55;11.40;;;;;;;-139.48;100.00;61774.03;5033181;28;20056;-67
2021/06/16 02:41:03;;;;;;;13.45;10.35;;;;;;;-139.48;100.00;61774.03;5032918;28;20106;-67
2021/06/16 02:43:48;;;;;;;17.55;11.05;;;;;;;-139.48;100.00;61774.03;5032180;28;20128;-67
2021/06/16 02:46:35;;;;;;;15.48;11.88;;;;;;;-139.48;100.00;61774.03;5032770;28;20048;-67
2021/06/16 02:49:25;;;;;;;15.02;11.27;;;;;;;-139.48;100.00;61774.03;5018826;28;20103;-66
2021/06/16 02:52:12;;;;;;;12.63;10.70;;;;;;;-139.48;100.00;61774.03;5032605;28;20498;-66
2021/06/16 02:54:58;;;;;;;16.75;11.98;;;;;;;-139.48;100.00;61774.03;5032594;28;20068;-66
2021/06/16 02:57:43;;;;;;;16.20;12.00;;;;;;;-139.48;100.00;61774.03;5033117;28;20398;-67
2021/06/16 03:00:28;;;;;;;17.75;11.20;;;;;;;-139.48;100.00;61774.03;5004929;28;20060;-67
2021/06/16 03:03:12;;;;;;;17.25;12.48;;;;;;;-139.48;100.00;61774.03;5018579;28;20049;-67
2021/06/16 03:05:57;;;;;;;15.02;11.20;;;;;;;-139.48;100.00;61774.03;5018772;28;20047;-66
2021/06/16 03:08:44;;;;;;;18.35;12.27;;;;;;;-139.48;100.00;61774.03;5032603;28;20064;-67
2021/06/16 03:11:30;;;;;;;16.98;11.00;;;;;;;-139.48;100.00;61774.03;5032509;28;20399;-66
2021/06/16 03:14:14;;;;;;;17.60;11.80;;;;;;;-139.48;100.00;61774.03;5040354;23;20522;-71
2021/06/16 03:16:58;;;;;;;15.88;11.88;;;;;;;-139.48;100.00;61774.03;5032484;28;20106;-70
2021/06/16 03:19:42;;;;;;;17.70;12.98;;;;;;;-139.48;100.00;61774.03;5018878;28;20075;-71
2021/06/16 03:22:28;;;;;;;20.92;13.27;;;;;;;-139.48;100.00;61774.03;5033287;28;20164;-71
2021/06/16 03:25:13;;;;;;;15.32;12.60;;;;;;;-139.48;100.00;61774.03;5026543;28;20052;-70
2021/06/16 03:27:57;;;;;;;16.65;12.63;;;;;;;-139.48;100.00;61774.03;5012713;28;20048;-70
2021/06/16 03:30:43;;;;;;;18.80;12.27;;;;;;;-139.48;100.00;61774.03;5012516;28;20053;-71
2021/06/16 03:33:27;;;;;;;20.80;13.45;;;;;;;-139.48;100.00;61774.03;5012267;28;20053;-70
2021/06/16 03:36:12;;;;;;;18.70;12.65;;;;;;;-139.48;100.00;61774.03;5012620;28;20088;-70
2021/06/16 03:38:56;;;;;;;17.52;12.93;;;;;;;-139.48;100.00;61774.03;5012308;28;20080;-70
2021/06/16 03:41:42;;;;;;;17.88;13.35;;;;;;;-139.48;100.00;61774.03;5012605;28;20049;-70
2021/06/16 03:44:27;;;;;;;17.30;12.75;;;;;;;-139.48;100.00;61774.03;5012436;28;20052;-71
2021/06/16 03:47:12;;;;;;;20.38;15.45;;;;;;;-139.48;100.00;61774.03;5012521;28;20474;-70
2021/06/16 03:49:56;;;;;;;15.77;13.32;;;;;;;-139.48;100.00;61774.03;5012398;28;20048;-71
2021/06/16 03:52:42;;;;;;;15.77;12.90;;;;;;;-139.48;100.00;61774.03;5012172;28;20108;-70
2021/06/16 03:55:26;;;;;;;18.20;13.70;;;;;;;-139.48;100.00;61774.03;5000880;28;20156;-71
2021/06/16 03:58:12;;;;;;;22.10;14.07;;;;;;;-139.48;100.00;61774.03;5016415;28;20048;-71
2021/06/16 04:00:56;;;;;;;17.65;13.75;;;;;;;-139.48;100.00;61774.03;5017081;28;20063;-71
2021/06/16 04:03:41;;;;;;;17.00;13.35;;;;;;;-139.48;100.00;61774.03;5002407;28;20049;-69
2021/06/16 04:06:25;;;;;;;14.85;12.77;;;;;;;-139.48;100.00;61774.03;5002415;28;20048;-71
2021/06/16 04:09:14;;;;;;;19.30;13.77;;;;;;;-139.48;100.00;61774.03;5016201;28;20498;-71
2021/06/16 04:11:58;;;;;;;18.25;12.45;;;;;;;-139.48;100.00;61774.03;5016029;28;20462;-71
2021/06/16 04:14:42;;;;;;;16.23;12.57;;;;;;;-139.48;100.00;61774.03;5001814;28;20128;-71
2021/06/16 04:17:26;;;;;;;16.80;12.65;;;;;;;-139.48;100.00;61774.03;5016000;28;20422;-71
2021/06/16 04:20:11;;;;;;;22.27;13.85;;;;;;;-139.48;100.00;61774.03;5002202;28;20049;-70
2021/06/16 04:22:56;;;;;;;17.63;13.25;;;;;;;-139.48;100.00;61774.03;5015889;28;20040;-71
2021/06/16 04:25:40;;;;;;;15.88;13.27;;;;;;;-139.48;100.00;61774.03;5015626;28;20056;-71
2021/06/16 04:28:24;;;;;;;18.23;14.35;;;;;;;-139.48;100.00;61774.03;5001986;28;20096;-71
2021/06/16 04:31:08;;;;;;;17.48;13.32;;;;;;;-139.48;100.00;61774.03;5015424;28;20077;-70
2021/06/16 04:33:51;;;;;;;16.23;13.10;;;;;;;-139.48;100.00;61774.03;5016928;28;20128;-70
2021/06/16 04:36:35;;;;;;;19.75;13.82;;;;;;;-139.48;100.00;61774.03;5015708;28;20053;-71
2021/06/16 04:39:19;;;;;;;16.98;12.40;;;;;;;-139.48;100.00;61774.03;5001792;28;20056;-71
2021/06/16 04:42:04;;;;;;;16.83;12.27;;;;;;;-139.48;100.00;61774.03;5015396;28;20049;-70
2021/06/16 04:44:48;;;;;;;17.15;12.52;;;;;;;-139.48;100.00;61774.03;5001641;28;20100;-70
2021/06/16 04:47:32;;;;;;;15.60;11.32;;;;;;;-139.48;100.00;61774.03;5015537;28;20045;-71
2021/06/16 04:50:17;;;;;;;18.48;12.13;;;;;;;-139.48;100.00;61774.03;5015131;28;20052;-70
2021/06/16 04:53:00;;;;;;;18.70;11.18;;;;;;;-139.48;100.00;61774.03;5016265;28;20056;-71
2021/06/16 04:55:44;;;;;;;19.27;11.55;;;;;;;-139.48;100.00;61774.03;5015596;28;20111;-70
2021/06/16 04:58:28;;;;;;;13.98;10.07;;;;;;;-139.48;100.00;61774.03;5014956;28;20099;-71
2021/06/16 05:01:12;;;;;;;17.23;10.93;;;;;;;-139.48;100.00;61774.03;5014943;28;20477;-71
2021/06/16 05:03:56;;;;;;;13.35;9.73;;;;;;;-139.48;100.00;61774.03;5016067;28;20172;-70
2021/06/16 05:06:40;;;;;;;13.48;9.57;;;;;;;-139.48;100.00;61774.03;5014381;28;20136;-71
2021/06/16 05:09:24;;;;;;;11.88;9.55;;;;;;;-139.48;100.00;61774.03;5016024;28;20056;-70
2021/06/16 05:12:09;;;;;;;15.40;9.93;;;;;;;-139.48;100.00;61774.03;5001110;28;20045;-71
2021/06/16 05:14:53;;;;;;;10.13;9.00;;;;;;;-139.48;100.00;61774.03;5000752;28;20048;-71
2021/06/16 05:17:39;;;;;;;13.15;8.68;;;;;;;-139.48;100.00;61774.03;5016225;28;20537;-71
2021/06/16 05:20:24;;;;;;;13.73;9.30;;;;;;;-139.48;100.00;61774.03;5015225;28;20118;-71
2021/06/16 05:23:08;;;;;;;15.02;8.70;;;;;;;-139.48;100.00;61774.03;5015745;28;20100;-71
2021/06/16 05:25:52;;;;;;;19.92;8.73;;;;;;;-139.48;100.00;61774.03;5014461;28;20049;-70
2021/06/16 05:28:36;;;;;;;11.77;7.97;;;;;;;-139.48;100.00;61774.03;5014884;28;20073;-71
2021/06/16 05:31:20;;;;;;;14.13;7.68;;;;;;;-139.48;100.00;61774.03;5014514;28;20100;-70
2021/06/16 05:34:05;;;;;;;14.05;7.70;;;;;;;-139.48;100.00;61774.03;5015264;28;20129;-70
2021/06/16 05:36:48;;;;;;;16.60;7.65;;;;;;;-139.48;100.00;61774.03;5014652;28;20049;-71
2021/06/16 05:39:33;;;;;;;13.90;7.32;;;;;;;-139.48;100.00;61774.03;5014724;28;20128;-71
2021/06/16 05:42:17;;;;;;;10.48;7.53;;;;;;;-139.48;100.00;61774.03;5014427;28;20045;-71
2021/06/16 05:45:02;;;;;;;13.32;9.35;;;;;;;-139.48;100.00;61774.03;5014145;28;20057;-71
2021/06/16 05:47:46;;;;;;;10.73;7.90;;;;;;;-139.48;100.00;61774.03;5014385;28;20044;-71
2021/06/16 05:50:30;;;;;;;10.85;7.05;;;;;;;-139.48;100.00;61774.03;5014452;28;20044;-71
2021/06/16 05:53:14;;;;;;;10.32;7.40;;;;;;;-139.48;100.00;61774.03;5015221;28;20057;-69
2021/06/16 05:55:58;;;;;;;8.15;6.40;;;;;;;-139.48;100.00;61774.03;5014052;28;20084;-71
2021/06/16 05:58:42;;;;;;;14.18;7.50;;;;;;;-139.48;100.00;61774.03;5000386;28;20130;-71
2021/06/16 06:01:26;;;;;;;9.38;6.68;;;;;;;-139.48;100.00;61774.03;5014110;28;20049;-70
2021/06/16 06:04:10;;;;;;;8.85;6.63;;;;;;;-139.48;100.00;61774.03;5014718;28;20137;-71
2021/06/16 06:06:54;;;;;;;7.07;6.35;;;;;;;-139.48;100.00;61774.03;5014778;28;20206;-71
2021/06/16 06:09:38;;;;;;;9.18;6.60;;;;;;;-139.48;100.00;61774.03;5013998;28;20120;-71
2021/06/16 06:12:22;;;;;;;;;;;;;;;-139.48;100.00;61774.03;5014317;28;20406;-71
2021/06/16 06:15:06;;;;;;;12.35;7.30;;;;;;;-139.48;100.00;61774.03;5013412;28;19920;-71
2021/06/16 06:17:50;;;;;;;10.52;5.90;;;;;;;-139.48;100.00;61774.03;5013612;28;20133;-70
2021/06/16 06:20:34;;;;;;;11.20;7.00;;;;;;;-139.48;100.00;61774.03;5013725;28;20057;-71
2021/06/16 06:23:18;;;;;;;10.35;6.93;;;;;;;-139.48;100.00;61774.03;5014868;28;20399;-71
2021/06/16 06:26:02;;;;;;;;;;;;;;;-139.48;100.00;61774.03;4999658;28;20081;-71
2021/06/16 06:28:46;;;;;;;8.82;7.10;;;;;;;-139.48;100.00;61774.03;5013639;28;20009;-71
2021/06/16 06:31:31;;;;;;;7.93;6.82;;;;;;;-139.48;100.00;61774.03;5013304;28;20049;-71
2021/06/16 06:34:15;;;;;;;7.35;6.63;;;;;;;-139.48;100.00;61774.03;5014637;28;20419;-71
2021/06/16 06:36:59;;;;;;;7.80;5.63;;;;;;;-139.48;100.00;61774.03;5013478;28;20058;-71
2021/06/16 06:39:43;;;;;;;10.77;6.30;;;;;;;-139.48;100.00;61774.03;5013218;28;20057;-71
2021/06/16 06:42:27;;;;;;;9.90;6.95;;;;;;;-139.48;100.00;61774.03;5013357;28;20462;-71
2021/06/16 06:45:11;;;;;;;9.48;7.07;;;;;;;-139.48;100.00;61774.03;5013298;28;20088;-70
2021/06/16 06:47:55;;;;;;;9.30;6.18;;;;;;;-139.48;100.00;61774.03;4999183;28;20429;-71
2021/06/16 06:50:39;;;;;;;8.23;6.65;;;;;;;-139.48;100.00;61774.03;5013410;28;20053;-71
2021/06/16 06:53:24;;;;;;;13.90;6.97;;;;;;;-139.48;100.00;61774.03;5012949;28;20136;-71
2021/06/16 06:56:09;;;;;;;9.80;6.80;;;;;;;-139.48;100.00;61774.03;5012975;28;20111;-71
2021/06/16 06:58:52;;;;;;;13.27;8.68;;;;;;;-139.48;100.00;61774.03;5014149;28;20048;-70
2021/06/16 07:01:36;;;;;;;;;;;;;;;-139.48;100.00;61774.03;5014506;28;20082;-71
2021/06/16 07:04:23;;;;;;;12.80;6.37;;;;;;;-139.48;100.00;61774.03;5012830;28;20294;-71
2021/06/16 07:07:07;;;;;;;9.50;6.55;;;;;;;-139.48;100.00;61774.03;5013026;28;20053;-71
2021/06/16 07:09:51;;;;;;;9.80;6.30;;;;;;;-139.48;100.00;61774.03;5013726;28;20419;-71
2021/06/16 07:12:35;;;;;;;9.85;6.60;;;;;;;-139.48;100.00;61774.03;5012934;28;20095;-71
2021/06/16 07:15:20;;;;;;;7.78;5.82;;;;;;;-139.48;100.00;61774.03;5012699;28;20052;-71
2021/06/16 07:18:04;;;;;;;11.98;6.78;;;;;;;-139.48;100.00;61774.03;5012863;28;20048;-71
2021/06/16 07:20:48;;;;;;;6.70;5.40;;;;;;;-139.48;100.00;61774.03;5012589;28;20104;-71
2021/06/16 07:23:32;;;;;;;11.02;5.78;;;;;;;-139.48;100.00;61774.03;4998624;28;20049;-71
2021/06/16 07:26:16;;;;;;;8.30;5.97;;;;;;;-139.48;100.00;61774.03;5012783;28;20052;-70
2021/06/16 07:29:00;;;;;;;7.25;6.22;;;;;;;-139.48;100.00;61774.03;5012422;28;20049;-70
2021/06/16 07:31:44;;;;;;;8.65;5.97;;;;;;;-139.48;100.00;61774.03;5013387;28;20057;-71
2021/06/16 07:34:28;;;;;;;;;;;;;;;-139.48;100.00;61774.03;5014018;28;20053;-71
2021/06/16 07:37:13;;;;;;;6.97;5.77;;;;;;;-139.48;100.00;61774.03;5013903;28;19920;-71
2021/06/16 07:39:57;;;;;;;7.70;6.10;;;;;;;-139.48;100.00;61774.03;5013796;28;20061;-71
2021/06/16 07:42:41;;;;;;;11.88;6.45;;;;;;;-139.48;100.00;61774.03;5012512;28;20442;-70
2021/06/16 07:45:25;;;;;;;9.40;6.00;;;;;;;-139.48;100.00;61774.03;5013567;28;20088;-71
2021/06/16 07:48:09;;;;;;;8.75;5.72;;;;;;;-139.48;100.00;61774.03;5012571;28;20053;-71
2021/06/16 07:50:53;;;;;;;11.43;6.22;;;;;;;-139.48;100.00;61774.03;5012406;28;20053;-71
2021/06/16 07:53:37;;;;;;;10.80;5.90;;;;;;;-139.48;100.00;61774.03;5013727;28;20449;-71
2021/06/16 07:56:20;;;;;;;;;;;;;;;-139.48;100.00;61774.03;5013173;28;20044;-71
2021/06/16 07:59:04;;;;;;;13.27;6.40;;;;;;;-139.48;100.00;61774.03;5013383;28;20277;-70
2021/06/16 08:01:48;;;;;;;11.60;6.20;;;;;;;-139.48;100.00;61774.03;5012488;28;20263;-70
2021/06/16 08:04:36;;;;;;;10.48;5.90;;;;;;;-139.48;100.00;61774.03;4998409;28;20052;-71
2021/06/16 08:07:20;;;;;;;7.72;6.38;;;;;;;-139.48;100.00;61774.03;4999173;28;20411;-70
2021/06/16 08:10:05;;;;;;;9.45;5.90;;;;;;;-139.48;100.00;61774.03;4998303;28;20173;-71
2021/06/16 08:12:48;;;;;;;9.60;6.05;;;;;;;-139.48;100.00;61774.03;5013046;28;20506;-71
2021/06/16 08:15:33;;;;;;;;;;;;;;;-139.48;100.00;61774.03;5012697;28;20063;-71
2021/06/16 08:18:17;;;;;;;13.65;6.10;;;;;;;-139.48;100.00;61774.03;5012905;28;20338;-71
2021/06/16 08:21:01;;;;;;;9.68;6.30;;;;;;;-139.48;100.00;61774.03;5013055;28;20049;-70
2021/06/16 08:23:45;;;;;;;13.32;6.65;;;;;;;-139.48;100.00;61774.03;5012302;28;20081;-71
2021/06/16 08:26:29;;;;;;;7.65;6.13;;;;;;;-139.48;100.00;61774.03;5011953;28;20052;-71
2021/06/16 08:29:13;;;;;;;;;;;;;;;-139.48;100.00;61774.03;4998679;28;20048;-71
2021/06/16 08:31:57;;;;;;;8.65;6.20;;;;;;;-139.48;100.00;61774.03;5012034;28;19964;-71
2021/06/16 08:34:41;;;;;;;11.32;6.18;;;;;;;-139.48;100.00;61774.03;5012938;28;20048;-71
2021/06/16 08:37:25;;;;;;;;;;;;;;;-139.48;100.00;61774.03;5013117;28;20044;-71
2021/06/16 08:40:10;;;;;;;10.20;6.30;;;;;;;-139.48;100.00;61774.03;5012152;28;19980;-70
2021/06/16 08:42:54;;;;;;;9.13;5.50;;;;;;;-139.48;100.00;61774.03;5015178;28;20052;-71
2021/06/16 08:45:39;;;;;;;8.20;6.38;;;;;;;-139.48;100.00;61774.03;5001355;28;20050;-71
2021/06/16 08:48:23;;;;;;;8.85;5.55;;;;;;;-139.48;100.00;61774.03;5015120;28;20049;-71
2021/06/16 08:51:09;;;;;;;12.50;7.00;;;;;;;-139.48;100.00;61774.03;5015160;28;20056;-71
2021/06/16 08:53:53;;;;;;;7.90;5.93;;;;;;;-139.48;100.00;61774.03;5014997;28;20044;-71
2021/06/16 08:56:37;;;;;;;8.45;6.15;;;;;;;-139.48;100.00;61774.03;5015338;28;20057;-71
2021/06/16 08:59:21;;;;;;;11.10;6.03;;;;;;;-139.48;100.00;61774.03;5015923;28;20056;-71
2021/06/16 09:02:05;;;;;;;8.68;6.15;;;;;;;-139.48;100.00;61774.03;5016181;28;20141;-70
2021/06/16 09:04:50;;;;;;;;;;;;;;;-139.48;100.00;61774.03;5015241;28;20099;-70
2021/06/16 09:07:35;;;;;;;6.85;6.10;;;;;;;-139.48;100.00;61774.03;5016116;28;19921;-71
2021/06/16 09:10:20;;;;;;;9.82;5.75;;;;;;;-139.48;100.00;61774.03;5015051;28;20052;-71
2021/06/16 09:13:08;;;;;;;8.52;6.57;;;;;;;-139.48;100.00;61774.03;5015403;28;20069;-69
2021/06/16 09:15:53;;;;;;;10.77;6.47;;;;;;;-139.48;100.00;61774.03;5015993;28;20135;-71
2021/06/16 09:18:44;;;;;;;7.63;5.68;;;;;;;-139.48;100.00;61774.03;5001362;28;20139;-71
2021/06/16 09:21:37;;;;;;;7.07;6.18;;;;;;;-139.48;100.00;61774.03;5014838;28;20465;-71
2021/06/16 09:24:21;;;;;;;10.15;6.20;;;;;;;-139.48;100.00;61774.03;5015031;28;20045;-71
2021/06/16 09:27:05;;;;;;;;;;;;;;;-139.48;100.00;61774.03;5014869;28;20056;-71
2021/06/16 09:29:49;;;;;;;8.25;5.68;;;;;;;-139.48;100.00;61774.03;5014770;28;20373;-71
2021/06/16 09:32:44;;;;;;;7.35;5.70;;;;;;;-139.48;100.00;61774.03;5015577;28;20053;-71
2021/06/16 09:35:31;;;;;;;8.23;5.38;;;;;;;-139.48;100.00;61774.03;5014649;28;20053;-71
2021/06/16 09:38:30;;;;;;;10.38;5.50;;;;;;;-139.48;100.00;61774.03;5015511;28;20048;-71
2021/06/16 09:41:18;;;;;;;9.63;5.85;;;;;;;-139.48;100.00;61774.03;5014647;28;20133;-71
2021/06/16 09:44:03;;;;;;;9.35;5.57;;;;;;;-139.48;100.00;61774.03;5000438;28;20096;-71
2021/06/16 09:47:06;;;;;;;;;;;;;;;-139.48;100.00;61774.03;5015802;28;20104;-71
2021/06/16 09:50:01;;;;;;;12.52;5.95;;;;;;;-139.48;100.00;61774.03;5015073;28;19920;-71
2021/06/16 09:52:47;;;;;;;12.38;6.30;;;;;;;-139.48;100.00;61774.03;5014713;28;20200;-71
2021/06/16 09:55:31;;;;;;;15.82;6.15;;;;;;;-139.48;100.00;61774.03;5015142;28;20107;-71
2021/06/16 09:58:17;;;;;;;11.10;5.95;;;;;;;-139.48;100.00;61774.03;5014847;28;20053;-71
2021/06/16 10:01:02;;;;;;;8.27;5.78;;;;;;;-139.48;100.00;61774.03;5000380;28;20076;-71
2021/06/16 10:03:46;;;;;;;10.38;4.90;;;;;;;-139.48;100.00;61774.03;5014973;28;20474;-71
2021/06/16 10:06:29;;;;;;;7.90;5.30;;;;;;;-139.48;100.00;61774.03;5000072;28;20052;-71
2021/06/16 10:09:14;;;;;;;9.18;5.88;;;;;;;-139.48;100.00;61774.03;5013894;28;20427;-71
2021/06/16 10:12:00;;;;;;;7.88;5.72;;;;;;;-139.48;100.00;61774.03;5013821;28;20048;-72
2021/06/16 10:14:44;;;;;;;12.45;6.97;;;;;;;-139.48;100.00;61774.03;5013717;28;20103;-71
2021/06/16 10:17:28;;;;;;;13.07;5.70;;;;;;;-139.48;100.00;61774.03;5013887;28;20053;-71
2021/06/16 10:20:14;;;;;;;6.97;5.50;;;;;;;-139.48;100.00;61774.03;5013665;28;20084;-71
2021/06/16 10:22:58;;;;;;;6.25;5.10;;;;;;;-139.48;100.00;61774.03;5013571;28;20138;-72
2021/06/16 10:25:42;;;;;;;9.27;5.43;;;;;;;-139.48;100.00;61774.03;5014286;28;20049;-71
2021/06/16 10:28:32;;;;;;;7.80;5.82;;;;;;;-139.48;100.00;61774.03;5013665;28;20052;-70
2021/06/16 10:31:16;;;;;;;11.18;5.05;;;;;;;-139.48;100.00;61774.03;5013546;28;20093;-71
2021/06/16 10:34:00;;;;;;;9.43;5.80;;;;;;;-139.48;100.00;61774.03;4999430;28;20415;-71
2021/06/16 10:37:04;;;;;;;10.35;5.90;;;;;;;-139.48;100.00;61774.03;5014338;28;20152;-71
2021/06/16 10:40:15;;;;;;;7.68;4.90;;;;;;;-139.48;100.00;61774.03;5014537;28;20143;-69
2021/06/16 10:42:59;;;;;;;5.82;4.72;;;;;;;-139.48;100.00;61774.03;5013254;28;20048;-69
2021/06/16 10:46:00;;;;;;;9.23;5.40;;;;;;;-139.48;100.00;61774.03;5014713;28;20052;-70
2021/06/16 10:48:56;;;;;;;8.38;5.25;;;;;;;-139.48;100.00;61774.03;5014633;28;20501;-70
2021/06/16 10:51:42;;;;;;;9.35;6.03;;;;;;;-139.48;100.00;61774.03;5014303;28;20048;-70
2021/06/16 10:54:28;;;;;;;4.93;4.45;;;;;;;-139.48;100.00;61774.03;4999513;28;20053;-70
2021/06/16 10:57:13;;;;;;;6.30;4.60;;;;;;;-139.48;100.00;61774.03;5013576;28;20049;-70
2021/06/16 11:00:05;;;;;;;9.55;5.43;;;;;;;-139.48;100.00;61774.03;5014177;28;20077;-70
2021/06/16 11:02:53;;;;;;;6.97;4.60;;;;;;;-139.48;100.00;61774.03;5013258;28;20061;-69
2021/06/16 11:05:40;;;;;;;9.38;4.93;;;;;;;-139.48;100.00;61774.03;5012664;28;20088;-70
2021/06/16 11:08:47;;;;;;;10.95;4.85;;;;;;;-139.48;100.00;61774.03;5012938;28;20112;-70
2021/06/16 11:11:49;;;;;;;5.70;5.10;;;;;;;-139.48;100.00;61774.03;5012916;28;20049;-70
2021/06/16 11:14:33;;;;;;;6.90;5.28;;;;;;;-139.48;100.00;61774.03;5012804;28;20411;-70
2021/06/16 11:17:23;;;;;;;6.25;5.10;;;;;;;-139.48;100.00;61774.03;5014148;28;20140;-70
2021/06/16 11:20:14;;;;;;;6.85;4.30;;;;;;;-139.48;100.00;61774.03;5013653;28;20133;-70
2021/06/16 11:23:00;;;;;;;5.07;4.57;;;;;;;-139.48;100.00;61774.03;4999764;28;20052;-70
2021/06/16 11:25:44;;;;;;;8.80;4.80;;;;;;;-139.48;100.00;61774.03;5014446;28;20049;-70
2021/06/16 11:28:38;;;;;;;9.10;5.25;;;;;;;-139.48;100.00;61774.03;5013422;28;20407;-70
2021/06/16 11:31:22;;;;;;;6.18;4.70;;;;;;;-139.48;100.00;61774.03;5013370;28;20049;-70
2021/06/16 11:34:06;;;;;;;9.65;4.95;;;;;;;-139.48;100.00;61774.03;5014292;28;20049;-70
2021/06/16 11:36:50;;;;;;;8.88;4.75;;;;;;;-139.48;100.00;61774.03;5014018;28;20422;-70
2021/06/16 11:39:33;;;;;;;9.23;5.03;;;;;;;-139.48;100.00;61774.03;5013920;28;20095;-70
2021/06/16 11:42:17;;;;;;;4.20;3.80;;;;;;;-139.48;100.00;61774.03;5013722;28;20107;-70
2021/06/16 11:45:05;;;;;;;5.43;4.15;;;;;;;-139.48;100.00;61774.03;4999053;28;20053;-70
2021/06/16 11:47:57;;;;;;;4.68;4.25;;;;;;;-139.48;100.00;61774.03;5012901;28;20053;-70
2021/06/16 11:50:42;;;;;;;9.00;4.32;;;;;;;-139.48;100.00;61774.03;5013660;28;20052;-70
2021/06/16 11:53:32;;;;;;;4.65;3.88;;;;;;;-139.48;100.00;61774.03;5013322;28;20052;-71
2021/06/16 11:56:15;;;;;;;8.93;3.63;;;;;;;-139.48;100.00;61774.03;5012517;28;20052;-71
2021/06/16 11:58:59;;;;;;;5.15;3.60;;;;;;;-139.48;100.00;61774.03;5013800;28;20511;-71
2021/06/16 12:01:44;;;;;;;4.45;3.33;;;;;;;-139.48;100.00;61774.03;5012422;28;20092;-71
2021/06/16 12:04:28;;;;;;;8.30;3.72;;;;;;;-139.48;100.00;61774.03;5012408;28;20069;-70
2021/06/16 12:07:12;;;;;;;4.15;3.55;;;;;;;-139.48;100.00;61774.03;5012658;28;20092;-71
2021/06/16 12:09:58;;;;;;;5.88;3.90;;;;;;;-139.48;100.00;61774.03;4998619;28;20049;-71
2021/06/16 12:12:49;;;;;;;6.78;3.70;;;;;;;-139.48;100.00;61774.03;5012376;28;20572;-71
2021/06/16 12:15:36;;;;;;;5.57;3.90;;;;;;;-139.48;100.00;61774.03;4999731;28;20545;-70
2021/06/16 12:18:20;;;;;;;4.28;3.50;;;;;;;-139.48;100.00;61774.03;5016342;28;20076;-71
2021/06/16 12:21:04;;;;;;;7.60;3.83;;;;;;;-139.48;100.00;61774.03;5002222;28;20418;-71
2021/06/16 12:23:47;;;;;;;6.80;3.83;;;;;;;-139.48;100.00;61774.03;5015911;28;20474;-71
2021/06/16 12:26:32;;;;;;;4.03;3.70;;;;;;;-139.48;100.00;61774.03;5017241;28;20048;-71
2021/06/16 12:29:16;;;;;;;4.53;3.45;;;;;;;-139.48;100.00;61774.03;5016959;28;20125;-71
2021/06/16 12:32:03;;;;;;;4.78;3.80;;;;;;;-139.48;100.00;61774.03;5015689;28;20049;-70